createdAt,value
2023-04-22T00:00:15.829Z,40.37
2023-04-22T00:02:43.882Z,39.76
2023-04-22T00:05:15.922Z,39.70
2023-04-22T00:07:45.287Z,41.46
2023-04-22T00:10:12.118Z,39.76
2023-04-22T00:12:39.042Z,43.78
2023-04-22T00:15:06.917Z,45.24
2023-04-22T00:17:33.865Z,42.24
2023-04-22T00:20:01.578Z,39.88
2023-04-22T00:22:28.353Z,38.24
2023-04-22T00:24:55.164Z,40.62
2023-04-22T00:27:21.967Z,37.71
2023-04-22T00:29:48.938Z,38.06
2023-04-22T00:32:15.707Z,37.99
2023-04-22T00:34:42.424Z,37.49
2023-04-22T00:37:09.276Z,43.32
2023-04-22T00:39:39.403Z,44.26
2023-04-22T00:42:07.800Z,40.94
2023-04-22T00:44:36.899Z,39.89
2023-04-22T00:47:04.465Z,37.98
2023-04-22T00:49:31.548Z,37.78
2023-04-22T00:51:58.351Z,37.79
2023-04-22T00:54:25.282Z,37.39
2023-04-22T00:56:52.213Z,38.56
2023-04-22T00:59:19.202Z,38.83
2023-04-22T01:01:46.906Z,39.19
2023-04-22T01:04:15.093Z,38.94
2023-04-22T01:06:44.391Z,39.56
2023-04-22T01:09:11.389Z,41.37
2023-04-22T01:11:38.438Z,41.03
2023-04-22T01:14:06.261Z,44.73
2023-04-22T01:16:35.945Z,48.35
2023-04-22T01:19:02.994Z,46.61
2023-04-22T01:21:33.742Z,44.19
2023-04-22T01:24:01.830Z,39.60
2023-04-22T01:26:28.843Z,39.07
2023-04-22T01:28:56.159Z,37.97
2023-04-22T01:31:22.964Z,37.84
2023-04-22T01:33:51.017Z,37.80
2023-04-22T01:36:18.044Z,41.92
2023-04-22T01:38:45.365Z,42.11
2023-04-22T01:41:13.836Z,44.83
2023-04-22T01:43:41.229Z,43.38
2023-04-22T01:46:09.056Z,42.89
2023-04-22T01:48:37.015Z,42.67
2023-04-22T01:51:04.789Z,46.89
2023-04-22T01:53:31.632Z,48.73
2023-04-22T01:55:59.927Z,40.56
2023-04-22T01:58:29.792Z,43.38
2023-04-22T02:00:57.653Z,44.61
2023-04-22T02:03:24.557Z,41.94
2023-04-22T02:05:51.382Z,40.31
2023-04-22T02:08:18.525Z,45.07
2023-04-22T02:10:45.452Z,46.00
2023-04-22T02:13:12.904Z,45.08
2023-04-22T02:15:41.250Z,45.40
2023-04-22T02:18:08.355Z,41.10
2023-04-22T02:20:35.118Z,41.60
2023-04-22T02:23:02.782Z,43.80
2023-04-22T02:25:29.980Z,40.82
2023-04-22T02:27:56.723Z,40.24
2023-04-22T02:30:24.258Z,39.05
2023-04-22T02:32:51.699Z,37.53
2023-04-22T02:35:19.118Z,39.37
2023-04-22T02:37:45.891Z,40.65
2023-04-22T02:40:13.005Z,41.59
2023-04-22T02:42:39.745Z,42.30
2023-04-22T02:45:07.125Z,42.76
2023-04-22T02:47:33.910Z,43.77
2023-04-22T02:50:01.096Z,40.01
2023-04-22T02:52:28.239Z,41.95
2023-04-22T02:54:54.953Z,39.55
2023-04-22T02:57:22.311Z,39.79
2023-04-22T02:59:49.024Z,38.62
2023-04-22T03:02:18.407Z,37.54
2023-04-22T03:04:58.953Z,41.48
2023-04-22T03:07:25.974Z,43.87
2023-04-22T03:09:53.623Z,43.48
2023-04-22T03:12:20.705Z,42.18
2023-04-22T03:14:47.638Z,44.68
2023-04-22T03:17:14.648Z,40.89
2023-04-22T03:19:42.200Z,38.06
2023-04-22T03:22:09.343Z,40.83
2023-04-22T03:24:36.951Z,37.27
2023-04-22T03:27:07.046Z,37.64
2023-04-22T03:29:34.035Z,38.32
2023-04-22T03:32:01.245Z,40.05
2023-04-22T03:34:28.166Z,42.57
2023-04-22T03:36:54.975Z,40.85
2023-04-22T03:39:22.202Z,41.39
2023-04-22T03:41:49.236Z,43.30
2023-04-22T03:44:16.451Z,38.74
2023-04-22T03:46:44.201Z,41.33
2023-04-22T03:49:18.191Z,43.44
2023-04-22T03:51:44.979Z,45.09
2023-04-22T03:54:16.552Z,44.58
2023-04-22T03:56:51.291Z,40.03
2023-04-22T03:59:21.219Z,41.75
2023-04-22T04:01:52.790Z,43.12
2023-04-22T04:04:23.991Z,43.54
2023-04-22T04:07:01.422Z,40.71
2023-04-22T04:09:28.981Z,39.91
2023-04-22T04:11:56.777Z,40.83
2023-04-22T04:14:23.975Z,43.24
2023-04-22T04:16:52.600Z,40.74
2023-04-22T04:19:27.695Z,37.70
2023-04-22T04:21:54.487Z,39.33
2023-04-22T04:24:23.155Z,40.31
2023-04-22T04:26:53.705Z,38.82
2023-04-22T04:29:27.380Z,40.72
2023-04-22T04:32:04.873Z,40.49
2023-04-22T04:34:37.878Z,39.49
2023-04-22T04:37:06.707Z,39.66
2023-04-22T04:39:43.589Z,42.59
2023-04-22T04:42:12.316Z,38.30
2023-04-22T04:44:51.470Z,38.60
2023-04-22T04:47:20.308Z,40.86
2023-04-22T04:49:47.586Z,42.90
2023-04-22T04:52:14.541Z,44.69
2023-04-22T04:54:41.558Z,43.53
2023-04-22T04:57:10.136Z,42.97
2023-04-22T04:59:38.306Z,43.38
2023-04-22T05:02:06.534Z,41.80
2023-04-22T05:04:34.591Z,39.40
2023-04-22T05:07:01.841Z,39.67
2023-04-22T05:09:30.032Z,37.75
2023-04-22T05:11:57.179Z,40.24
2023-04-22T05:14:25.655Z,39.17
2023-04-22T05:16:53.273Z,38.04
2023-04-22T05:19:20.631Z,40.23
2023-04-22T05:21:48.358Z,43.80
2023-04-22T05:24:16.913Z,41.68
2023-04-22T05:26:44.166Z,38.72
2023-04-22T05:29:15.888Z,41.31
2023-04-22T05:31:42.766Z,38.56
2023-04-22T05:34:09.864Z,38.28
2023-04-22T05:36:37.480Z,41.67
2023-04-22T05:39:04.911Z,39.17
2023-04-22T05:41:32.971Z,38.47
2023-04-22T05:44:00.588Z,36.54
2023-04-22T05:46:29.454Z,35.47
2023-04-22T05:48:56.849Z,39.63
2023-04-22T05:51:43.820Z,36.23
2023-04-22T05:54:13.693Z,36.95
2023-04-22T05:56:40.589Z,34.90
2023-04-22T05:59:07.511Z,34.28
2023-04-22T06:01:35.686Z,34.68
2023-04-22T06:04:07.513Z,39.75
2023-04-22T06:06:34.478Z,39.19
2023-04-22T06:09:01.444Z,36.96
2023-04-22T06:11:29.016Z,36.64
2023-04-22T06:13:55.956Z,36.64
2023-04-22T06:16:23.830Z,36.37
2023-04-22T06:18:50.857Z,36.75
2023-04-22T06:21:17.889Z,34.86
2023-04-22T06:23:44.599Z,34.76
2023-04-22T06:26:11.618Z,36.20
2023-04-22T06:28:39.994Z,31.58
2023-04-22T06:31:11.605Z,34.14
2023-04-22T06:33:39.147Z,32.44
2023-04-22T06:36:06.528Z,32.44
2023-04-22T06:38:34.853Z,32.05
2023-04-22T06:41:27.872Z,34.29
2023-04-22T06:43:59.566Z,34.96
2023-04-22T06:47:01.420Z,33.75
2023-04-22T06:49:57.425Z,32.15
2023-04-22T06:52:40.741Z,31.01
2023-04-22T06:55:08.003Z,31.22
2023-04-22T06:57:34.865Z,28.53
2023-04-22T07:00:01.949Z,28.93
2023-04-22T07:02:30.161Z,28.85
2023-04-22T07:04:56.889Z,25.99
2023-04-22T07:07:25.370Z,28.43
2023-04-22T07:09:53.060Z,28.08
2023-04-22T07:12:19.878Z,26.61
2023-04-22T07:14:49.899Z,28.87
2023-04-22T07:17:19.462Z,28.52
2023-04-22T07:19:46.297Z,28.07
2023-04-22T07:22:13.131Z,27.05
2023-04-22T07:24:41.046Z,28.93
2023-04-22T07:27:08.163Z,28.36
2023-04-22T07:29:35.136Z,25.49
2023-04-22T07:32:02.298Z,26.66
2023-04-22T07:34:29.055Z,24.13
2023-04-22T07:36:56.175Z,24.29
2023-04-22T07:39:23.313Z,23.98
2023-04-22T07:41:50.895Z,24.41
2023-04-22T07:44:21.819Z,23.93
2023-04-22T07:46:50.271Z,23.85
2023-04-22T07:49:17.451Z,23.06
2023-04-22T07:51:45.027Z,23.03
2023-04-22T07:54:12.139Z,22.95
2023-04-22T07:56:39.757Z,22.38
2023-04-22T07:59:07.080Z,24.38
2023-04-22T08:01:33.850Z,24.33
2023-04-22T08:04:00.662Z,26.27
2023-04-22T08:06:28.202Z,25.53
2023-04-22T08:08:55.152Z,25.62
2023-04-22T08:11:22.104Z,22.89
2023-04-22T08:13:48.996Z,26.71
2023-04-22T08:16:15.863Z,25.10
2023-04-22T08:18:42.643Z,25.79
2023-04-22T08:21:10.295Z,23.31
2023-04-22T08:23:37.169Z,23.04
2023-04-22T08:26:04.288Z,23.33
2023-04-22T08:28:31.095Z,24.10
2023-04-22T08:30:57.876Z,26.02
2023-04-22T08:33:27.160Z,23.40
2023-04-22T08:35:54.209Z,24.45
2023-04-22T08:38:21.108Z,24.31
2023-04-22T08:40:48.023Z,25.74
2023-04-22T08:43:15.133Z,24.62
2023-04-22T08:45:42.340Z,24.44
2023-04-22T08:48:10.562Z,23.57
2023-04-22T09:15:57.810Z,24.51
2023-04-22T09:45:34.173Z,22.61
2023-04-22T09:48:06.860Z,22.25
2023-04-22T09:50:33.870Z,24.02
2023-04-22T09:53:05.976Z,20.87
2023-04-22T09:55:35.712Z,19.75
2023-04-22T09:58:11.391Z,18.60
2023-04-22T10:00:50.181Z,18.71
2023-04-22T10:03:17.943Z,18.89
2023-04-22T10:05:46.156Z,19.41
2023-04-22T10:08:14.804Z,18.49
2023-04-22T10:10:41.869Z,19.83
2023-04-22T10:13:09.671Z,19.47
2023-04-22T10:15:41.554Z,17.13
2023-04-22T10:18:12.907Z,18.01
2023-04-22T10:20:42.634Z,17.56
2023-04-22T10:23:15.970Z,16.26
2023-04-22T10:25:46.905Z,19.13
2023-04-22T10:28:16.657Z,17.76
2023-04-22T10:30:43.544Z,17.09
2023-04-22T10:33:27.839Z,17.76
2023-04-22T10:36:08.354Z,15.32
2023-04-22T10:38:51.541Z,15.42
2023-04-22T10:41:26.882Z,14.76
2023-04-22T10:43:58.900Z,15.97
2023-04-22T10:46:35.540Z,15.65
2023-04-22T10:49:12.906Z,17.22
2023-04-22T10:51:40.786Z,17.63
2023-04-22T10:54:08.163Z,17.53
2023-04-22T10:56:35.409Z,14.80
2023-04-22T10:59:16.918Z,16.54
2023-04-22T11:01:44.774Z,15.48
2023-04-22T11:04:20.947Z,17.74
2023-04-22T11:07:30.016Z,15.98
2023-04-22T11:10:01.117Z,15.86
2023-04-22T11:12:40.078Z,15.02
2023-04-22T11:15:15.852Z,15.13
2023-04-22T11:17:44.817Z,18.78
2023-04-22T11:20:13.179Z,16.49
2023-04-22T11:22:43.089Z,16.09
2023-04-22T11:25:11.333Z,15.04
2023-04-22T11:27:41.519Z,15.45
2023-04-22T11:30:13.122Z,15.81
2023-04-22T11:32:51.241Z,16.28
2023-04-22T11:35:29.451Z,15.81
2023-04-22T11:38:01.627Z,14.41
2023-04-22T11:40:42.090Z,14.83
2023-04-22T11:43:11.540Z,17.81
2023-04-22T11:45:39.620Z,14.09
2023-04-22T11:48:08.627Z,16.72
2023-04-22T11:50:44.887Z,17.59
2023-04-22T11:53:19.505Z,17.94
2023-04-22T11:55:51.117Z,16.63
2023-04-22T11:58:20.614Z,17.57
2023-04-22T12:00:52.447Z,18.24
2023-04-22T12:03:20.551Z,21.77
2023-04-22T12:05:47.402Z,18.95
2023-04-22T12:08:16.503Z,16.57
2023-04-22T12:10:44.457Z,16.73
2023-04-22T12:13:21.732Z,20.10
2023-04-22T12:15:49.096Z,19.19
2023-04-22T12:18:15.954Z,18.32
2023-04-22T12:20:43.626Z,18.42
2023-04-22T12:23:15.469Z,17.28
2023-04-22T12:25:43.762Z,19.95
2023-04-22T12:28:11.939Z,18.86
2023-04-22T12:30:38.783Z,17.75
2023-04-22T12:33:06.782Z,17.85
2023-04-22T12:35:33.812Z,17.91
2023-04-22T12:38:00.817Z,17.89
2023-04-22T12:40:28.035Z,19.18
2023-04-22T12:42:55.000Z,19.55
2023-04-22T12:45:23.041Z,19.15
2023-04-22T12:47:53.817Z,19.31
2023-04-22T12:50:21.017Z,19.82
2023-04-22T12:52:47.779Z,17.97
2023-04-22T12:55:14.490Z,19.08
2023-04-22T12:57:42.095Z,19.43
2023-04-22T13:00:14.426Z,19.57
2023-04-22T13:02:43.625Z,20.51
2023-04-22T13:05:11.570Z,20.55
2023-04-22T13:07:40.141Z,21.63
2023-04-22T13:10:08.535Z,21.77
2023-04-22T13:12:37.293Z,21.71
2023-04-22T13:15:06.492Z,21.93
2023-04-22T13:17:34.242Z,19.48
2023-04-22T13:20:00.989Z,19.75
2023-04-22T13:22:28.433Z,19.67
2023-04-22T13:24:55.406Z,21.40
2023-04-22T13:27:22.419Z,18.86
2023-04-22T13:29:49.121Z,19.49
2023-04-22T13:32:15.931Z,20.23
2023-04-22T13:34:45.864Z,18.46
2023-04-22T13:37:15.074Z,20.84
2023-04-22T13:39:42.839Z,19.50
2023-04-22T13:42:10.474Z,19.35
2023-04-22T13:44:37.606Z,19.27
2023-04-22T13:47:04.362Z,19.30
2023-04-22T13:49:31.159Z,18.47
2023-04-22T13:51:58.751Z,19.67
2023-04-22T13:54:26.141Z,19.34
2023-04-22T13:56:53.615Z,18.61
2023-04-22T13:59:20.537Z,18.16
2023-04-22T14:01:47.268Z,20.68
2023-04-22T14:04:14.909Z,18.82
2023-04-22T14:06:42.176Z,19.87
2023-04-22T14:09:09.923Z,20.11
2023-04-22T14:11:36.722Z,18.71
2023-04-22T14:14:03.557Z,20.61
2023-04-22T14:16:31.739Z,19.16
2023-04-22T14:19:00.098Z,19.87
2023-04-22T14:21:29.612Z,20.26
2023-04-22T14:23:58.333Z,19.21
2023-04-22T14:26:25.067Z,18.75
2023-04-22T14:28:51.902Z,18.75
2023-04-22T14:31:19.804Z,20.74
2023-04-22T14:33:46.668Z,19.10
2023-04-22T14:36:13.377Z,19.35
2023-04-22T14:38:40.096Z,19.46
2023-04-22T14:41:06.981Z,17.27
2023-04-22T14:43:34.195Z,19.49
2023-04-22T14:46:01.190Z,19.04
2023-04-22T14:48:30.898Z,18.63
2023-04-22T14:50:58.558Z,17.34
2023-04-22T14:53:25.876Z,17.08
2023-04-22T14:55:53.295Z,18.42
2023-04-22T14:58:20.052Z,19.03
2023-04-22T15:00:48.412Z,19.98
2023-04-22T15:03:16.044Z,17.81
2023-04-22T15:05:43.704Z,18.70
2023-04-22T15:08:10.513Z,18.17
2023-04-22T15:10:37.340Z,19.89
2023-04-22T15:13:04.016Z,16.97
2023-04-22T15:15:30.912Z,18.87
2023-04-22T15:17:57.984Z,18.11
2023-04-22T15:20:25.327Z,18.03
2023-04-22T15:22:52.272Z,18.69
2023-04-22T15:25:19.071Z,17.96
2023-04-22T15:27:46.400Z,18.35
2023-04-22T15:30:13.831Z,19.26
2023-04-22T15:32:40.733Z,18.57
2023-04-22T15:35:08.509Z,20.46
2023-04-22T15:37:35.317Z,19.64
2023-04-22T15:40:02.120Z,20.72
2023-04-22T15:42:29.024Z,20.31
2023-04-22T15:44:55.796Z,18.67
2023-04-22T15:47:22.691Z,20.49
2023-04-22T15:49:49.711Z,20.36
2023-04-22T15:52:18.283Z,19.61
2023-04-22T15:54:46.011Z,19.28
2023-04-22T15:57:13.033Z,19.61
2023-04-22T15:59:40.024Z,19.77
2023-04-22T16:02:08.909Z,20.35
2023-04-22T16:04:36.347Z,21.90
2023-04-22T16:07:03.392Z,22.08
2023-04-22T16:09:31.143Z,21.70
2023-04-22T16:11:58.089Z,21.17
2023-04-22T16:14:24.837Z,22.11
2023-04-22T16:16:52.516Z,22.24
2023-04-22T16:19:19.683Z,22.01
2023-04-22T16:21:46.748Z,22.42
2023-04-22T16:24:14.640Z,21.88
2023-04-22T16:26:43.120Z,22.02
2023-04-22T16:29:09.855Z,22.95
2023-04-22T16:31:38.953Z,22.30
2023-04-22T16:34:05.870Z,21.73
2023-04-22T16:36:32.751Z,22.87
2023-04-22T16:38:59.609Z,23.07
2023-04-22T16:41:26.372Z,23.42
2023-04-22T16:43:53.212Z,22.78
2023-04-22T16:46:20.024Z,22.58
2023-04-22T16:48:46.995Z,22.61
2023-04-22T16:51:14.009Z,21.70
2023-04-22T16:53:41.266Z,21.84
2023-04-22T16:56:08.181Z,22.51
2023-04-22T16:58:34.913Z,23.14
2023-04-22T17:01:02.078Z,23.39
2023-04-22T17:03:30.141Z,23.76
2023-04-22T17:05:57.369Z,24.75
2023-04-22T17:08:24.507Z,25.32
2023-04-22T17:10:52.419Z,25.09
2023-04-22T17:13:19.155Z,25.42
2023-04-22T17:15:47.154Z,26.39
2023-04-22T17:18:15.086Z,26.82
2023-04-22T17:20:43.126Z,28.31
2023-04-22T17:23:10.115Z,28.24
2023-04-22T17:25:37.257Z,30.95
2023-04-22T17:28:04.483Z,31.06
2023-04-22T17:30:32.314Z,30.72
2023-04-22T17:32:59.441Z,31.09
2023-04-22T17:35:26.705Z,31.93
2023-04-22T17:37:53.914Z,32.10
2023-04-22T17:40:22.097Z,32.37
2023-04-22T17:42:48.861Z,33.27
2023-04-22T17:45:16.375Z,33.59
2023-04-22T17:47:43.369Z,32.97
2023-04-22T17:50:10.638Z,32.85
2023-04-22T17:52:37.445Z,32.86
2023-04-22T17:55:04.632Z,33.31
2023-04-22T17:57:31.883Z,33.84
2023-04-22T17:59:58.645Z,33.26
2023-04-22T18:02:25.648Z,32.93
2023-04-22T18:04:52.686Z,32.89
2023-04-22T18:07:19.436Z,34.97
2023-04-22T18:09:46.787Z,34.47
2023-04-22T18:12:13.590Z,34.31
2023-04-22T18:14:40.436Z,34.61
2023-04-22T18:17:07.393Z,33.43
2023-04-22T18:19:34.146Z,33.60
2023-04-22T18:22:01.777Z,34.88
2023-04-22T18:24:28.776Z,33.67
2023-04-22T18:26:55.626Z,34.54
2023-04-22T18:29:22.358Z,34.63
2023-04-22T18:31:49.148Z,34.38
2023-04-22T18:34:16.123Z,35.26
2023-04-22T18:36:42.929Z,36.69
2023-04-22T18:39:10.043Z,37.21
2023-04-22T18:41:38.674Z,36.50
2023-04-22T18:44:06.360Z,34.81
2023-04-22T18:46:34.872Z,35.08
2023-04-22T18:49:04.619Z,35.01
2023-04-22T18:51:33.955Z,37.58
2023-04-22T18:54:04.740Z,36.95
2023-04-22T18:56:34.060Z,36.08
2023-04-22T18:59:01.625Z,34.94
2023-04-22T19:01:33.006Z,35.63
2023-04-22T19:04:05.009Z,34.85
2023-04-22T19:06:33.440Z,34.23
2023-04-22T19:09:01.342Z,35.65
2023-04-22T19:11:29.250Z,34.64
2023-04-22T19:13:57.613Z,38.38
2023-04-22T19:16:26.337Z,38.49
2023-04-22T19:18:53.369Z,36.76
2023-04-22T19:21:20.331Z,36.68
2023-04-22T19:23:47.355Z,36.11
2023-04-22T19:26:14.490Z,37.22
2023-04-22T19:28:47.390Z,35.46
2023-04-22T19:31:15.607Z,36.12
2023-04-22T19:33:43.769Z,41.39
2023-04-22T19:36:11.008Z,38.51
2023-04-22T19:38:37.791Z,38.67
2023-04-22T19:41:04.510Z,42.23
2023-04-22T19:43:32.914Z,42.25
2023-04-22T19:45:59.676Z,44.11
2023-04-22T19:48:26.807Z,44.41
2023-04-22T19:50:53.654Z,40.87
2023-04-22T19:53:23.186Z,40.21
2023-04-22T19:55:50.394Z,39.16
2023-04-22T19:58:18.061Z,37.95
2023-04-22T20:00:45.674Z,39.36
2023-04-22T20:03:14.508Z,41.04
2023-04-22T20:05:43.753Z,39.56
2023-04-22T20:08:12.056Z,39.43
2023-04-22T20:10:38.923Z,38.50
2023-04-22T20:13:06.243Z,40.15
2023-04-22T20:15:33.903Z,44.28
2023-04-22T20:18:01.846Z,42.29
2023-04-22T20:20:29.024Z,40.55
2023-04-22T20:23:00.015Z,40.00
2023-04-22T20:25:28.782Z,39.16
2023-04-22T20:27:56.731Z,38.71
2023-04-22T20:30:23.546Z,37.07
2023-04-22T20:32:50.373Z,35.84
2023-04-22T20:35:17.544Z,37.06
2023-04-22T20:37:47.284Z,34.26
2023-04-22T20:40:15.278Z,37.05
2023-04-22T20:42:42.215Z,36.58
2023-04-22T20:45:14.991Z,37.72
2023-04-22T20:47:42.504Z,37.08
2023-04-22T20:50:09.726Z,36.41
2023-04-22T20:52:36.637Z,36.84
2023-04-22T20:55:06.736Z,36.45
2023-04-22T20:57:34.337Z,38.00
2023-04-22T21:00:01.463Z,37.89
2023-04-22T21:02:29.341Z,35.88
2023-04-22T21:04:57.626Z,37.59
2023-04-22T21:07:26.501Z,37.32
2023-04-22T21:09:53.445Z,37.43
2023-04-22T21:12:20.472Z,38.01
2023-04-22T21:14:48.246Z,38.09
2023-04-22T21:17:21.472Z,37.22
2023-04-22T21:19:50.579Z,38.01
2023-04-22T21:22:23.454Z,38.50
2023-04-22T21:24:51.453Z,37.66
2023-04-22T21:27:19.701Z,40.19
2023-04-22T21:29:47.753Z,39.67
2023-04-22T21:32:14.888Z,39.04
2023-04-22T21:34:41.959Z,39.38
2023-04-22T21:37:09.369Z,38.72
2023-04-22T21:39:36.599Z,38.16
2023-04-22T21:42:08.148Z,39.75
2023-04-22T21:44:37.350Z,38.16
2023-04-22T21:47:05.079Z,40.00
2023-04-22T21:49:32.445Z,38.58
2023-04-22T21:51:59.735Z,40.77
2023-04-22T21:54:26.609Z,39.75
2023-04-22T21:56:53.451Z,39.33
2023-04-22T21:59:20.395Z,40.85
2023-04-22T22:01:47.179Z,41.21
2023-04-22T22:04:16.217Z,39.56
2023-04-22T22:06:44.930Z,39.67
2023-04-22T22:09:12.582Z,38.90
2023-04-22T22:11:39.321Z,38.69
2023-04-22T22:14:06.088Z,40.21
2023-04-22T22:16:38.314Z,39.98
2023-04-22T22:19:05.586Z,40.20
2023-04-22T22:21:33.420Z,39.09
2023-04-22T22:24:00.130Z,40.58
2023-04-22T22:26:27.963Z,38.71
2023-04-22T22:28:55.084Z,39.25
2023-04-22T22:31:21.872Z,40.68
2023-04-22T22:33:49.290Z,40.88
2023-04-22T22:36:16.338Z,38.92
2023-04-22T22:38:43.387Z,40.39
2023-04-22T22:41:10.105Z,38.64
2023-04-22T22:43:36.890Z,41.69
2023-04-22T22:46:03.715Z,40.17
2023-04-22T22:48:30.571Z,40.64
2023-04-22T22:50:57.350Z,44.20
2023-04-22T22:53:24.025Z,41.60
2023-04-22T22:55:50.919Z,41.11
2023-04-22T22:58:17.725Z,40.59
2023-04-22T23:00:45.153Z,39.41
2023-04-22T23:03:12.754Z,38.70
2023-04-22T23:05:39.597Z,41.13
2023-04-22T23:08:06.943Z,41.63
2023-04-22T23:10:33.698Z,39.61
2023-04-22T23:13:00.603Z,41.25
2023-04-22T23:15:27.379Z,40.71
2023-04-22T23:17:54.200Z,41.12
2023-04-22T23:20:22.170Z,42.84
2023-04-22T23:22:51.477Z,41.33
2023-04-22T23:25:18.999Z,42.71
2023-04-22T23:27:46.166Z,42.24
2023-04-22T23:30:13.694Z,41.29
2023-04-22T23:32:42.490Z,41.78
2023-04-22T23:35:11.891Z,39.40
2023-04-22T23:37:44.894Z,40.63
2023-04-22T23:40:12.483Z,40.19
2023-04-22T23:42:39.354Z,40.11
2023-04-22T23:45:07.332Z,39.27
2023-04-22T23:47:34.130Z,40.70
2023-04-22T23:50:00.815Z,41.11
2023-04-22T23:52:27.555Z,42.96
2023-04-22T23:54:55.198Z,42.97
2023-04-22T23:57:22.182Z,41.13
2023-04-22T23:59:49.178Z,39.74
